sensor_id;sensor_type;location;lat;lon;timestamp;P1;durP1;ratioP1;P2;durP2;ratioP2
5612;SDS011;2828;53.582;9.956;2022-07-21T00:01:53;16.23;;;10.50;;
5612;SDS011;2828;53.582;9.956;2022-07-21T00:04:19;20.17;;;11.47;;
5612;SDS011;2828;53.582;9.956;2022-07-21T00:06:45;34.10;;;12.07;;
5612;SDS011;2828;53.582;9.956;2022-07-21T00:09:12;16.73;;;11.57;;
5612;SDS011;2828;53.582;9.956;2022-07-21T00:11:38;26.90;;;11.47;;
5612;SDS011;2828;53.582;9.956;2022-07-21T00:14:05;22.50;;;11.60;;
5612;SDS011;2828;53.582;9.956;2022-07-21T00:16:31;28.10;;;12.10;;
5612;SDS011;2828;53.582;9.956;2022-07-21T00:18:57;22.30;;;11.10;;
5612;SDS011;2828;53.582;9.956;2022-07-21T00:21:24;21.83;;;11.10;;
5612;SDS011;2828;53.582;9.956;2022-07-21T00:23:50;31.40;;;10.20;;
5612;SDS011;2828;53.582;9.956;2022-07-21T00:26:16;27.13;;;11.00;;
5612;SDS011;2828;53.582;9.956;2022-07-21T00:28:42;21.20;;;10.70;;
5612;SDS011;2828;53.582;9.956;2022-07-21T00:31:08;26.30;;;11.17;;
5612;SDS011;2828;53.582;9.956;2022-07-21T00:33:34;19.30;;;10.37;;
5612;SDS011;2828;53.582;9.956;2022-07-21T00:36:00;16.97;;;10.00;;
5612;SDS011;2828;53.582;9.956;2022-07-21T00:38:26;17.23;;;9.63;;
5612;SDS011;2828;53.582;9.956;2022-07-21T00:40:53;18.27;;;10.63;;
5612;SDS011;2828;53.582;9.956;2022-07-21T00:43:19;18.30;;;11.03;;
5612;SDS011;2828;53.582;9.956;2022-07-21T00:45:45;18.70;;;11.17;;
5612;SDS011;2828;53.582;9.956;2022-07-21T00:48:11;19.07;;;11.30;;
5612;SDS011;2828;53.582;9.956;2022-07-21T00:50:38;19.43;;;10.90;;
5612;SDS011;2828;53.582;9.956;2022-07-21T00:53:04;13.90;;;10.00;;
5612;SDS011;2828;53.582;9.956;2022-07-21T00:55:30;14.70;;;10.03;;
5612;SDS011;2828;53.582;9.956;2022-07-21T00:57:56;28.53;;;11.50;;
5612;SDS011;2828;53.582;9.956;2022-07-21T01:00:23;20.00;;;10.40;;
5612;SDS011;2828;53.582;9.956;2022-07-21T01:02:50;17.20;;;11.10;;
5612;SDS011;2828;53.582;9.956;2022-07-21T01:05:16;17.50;;;10.20;;
5612;SDS011;2828;53.582;9.956;2022-07-21T01:07:45;20.03;;;11.13;;
5612;SDS011;2828;53.582;9.956;2022-07-21T01:10:11;26.17;;;10.97;;
5612;SDS011;2828;53.582;9.956;2022-07-21T01:12:38;21.23;;;11.10;;
5612;SDS011;2828;53.582;9.956;2022-07-21T01:15:05;26.40;;;10.73;;
5612;SDS011;2828;53.582;9.956;2022-07-21T01:17:31;17.50;;;9.50;;
5612;SDS011;2828;53.582;9.956;2022-07-21T01:19:58;19.47;;;10.17;;
5612;SDS011;2828;53.582;9.956;2022-07-21T01:22:25;19.20;;;10.53;;
5612;SDS011;2828;53.582;9.956;2022-07-21T01:24:51;20.80;;;11.20;;
5612;SDS011;2828;53.582;9.956;2022-07-21T01:27:17;23.47;;;12.00;;
5612;SDS011;2828;53.582;9.956;2022-07-21T01:29:43;20.20;;;11.47;;
5612;SDS011;2828;53.582;9.956;2022-07-21T01:32:09;32.53;;;11.93;;
5612;SDS011;2828;53.582;9.956;2022-07-21T01:34:35;23.87;;;10.13;;
5612;SDS011;2828;53.582;9.956;2022-07-21T01:37:01;18.63;;;10.30;;
5612;SDS011;2828;53.582;9.956;2022-07-21T01:39:27;24.90;;;11.90;;
5612;SDS011;2828;53.582;9.956;2022-07-21T01:42:11;27.17;;;11.57;;
5612;SDS011;2828;53.582;9.956;2022-07-21T01:44:37;23.20;;;11.40;;
5612;SDS011;2828;53.582;9.956;2022-07-21T01:47:03;19.97;;;10.50;;
5612;SDS011;2828;53.582;9.956;2022-07-21T01:49:29;20.37;;;11.97;;
5612;SDS011;2828;53.582;9.956;2022-07-21T01:51:55;21.30;;;10.13;;
5612;SDS011;2828;53.582;9.956;2022-07-21T01:54:21;17.07;;;10.23;;
5612;SDS011;2828;53.582;9.956;2022-07-21T01:56:48;16.50;;;9.83;;
5612;SDS011;2828;53.582;9.956;2022-07-21T01:59:13;19.50;;;10.43;;
5612;SDS011;2828;53.582;9.956;2022-07-21T02:01:39;17.10;;;10.40;;
5612;SDS011;2828;53.582;9.956;2022-07-21T02:04:05;17.43;;;10.50;;
5612;SDS011;2828;53.582;9.956;2022-07-21T02:06:31;25.60;;;10.90;;
5612;SDS011;2828;53.582;9.956;2022-07-21T02:08:58;21.37;;;11.20;;
5612;SDS011;2828;53.582;9.956;2022-07-21T02:11:24;20.73;;;11.70;;
5612;SDS011;2828;53.582;9.956;2022-07-21T02:13:50;17.40;;;11.10;;
5612;SDS011;2828;53.582;9.956;2022-07-21T02:16:16;25.97;;;12.40;;
5612;SDS011;2828;53.582;9.956;2022-07-21T02:18:43;22.03;;;11.77;;
5612;SDS011;2828;53.582;9.956;2022-07-21T02:21:10;21.03;;;11.73;;
5612;SDS011;2828;53.582;9.956;2022-07-21T02:23:36;28.63;;;13.17;;
5612;SDS011;2828;53.582;9.956;2022-07-21T02:26:02;28.70;;;12.40;;
5612;SDS011;2828;53.582;9.956;2022-07-21T02:28:28;31.43;;;12.60;;
5612;SDS011;2828;53.582;9.956;2022-07-21T02:30:54;27.90;;;12.97;;
5612;SDS011;2828;53.582;9.956;2022-07-21T02:33:20;24.30;;;12.60;;
5612;SDS011;2828;53.582;9.956;2022-07-21T02:35:46;40.30;;;14.07;;
5612;SDS011;2828;53.582;9.956;2022-07-21T02:38:12;31.07;;;14.70;;
5612;SDS011;2828;53.582;9.956;2022-07-21T02:40:38;27.83;;;13.97;;
5612;SDS011;2828;53.582;9.956;2022-07-21T02:43:05;32.13;;;14.23;;
5612;SDS011;2828;53.582;9.956;2022-07-21T02:45:31;39.37;;;15.20;;
5612;SDS011;2828;53.582;9.956;2022-07-21T02:50:24;33.93;;;14.63;;
5612;SDS011;2828;53.582;9.956;2022-07-21T02:52:50;17.47;;;11.00;;
5612;SDS011;2828;53.582;9.956;2022-07-21T02:55:16;27.90;;;12.47;;
5612;SDS011;2828;53.582;9.956;2022-07-21T02:57:42;23.70;;;12.57;;
5612;SDS011;2828;53.582;9.956;2022-07-21T03:00:09;21.97;;;10.60;;
5612;SDS011;2828;53.582;9.956;2022-07-21T03:02:35;25.67;;;12.07;;
5612;SDS011;2828;53.582;9.956;2022-07-21T03:05:01;25.13;;;12.60;;
5612;SDS011;2828;53.582;9.956;2022-07-21T03:07:27;22.83;;;11.20;;
5612;SDS011;2828;53.582;9.956;2022-07-21T03:09:53;28.00;;;11.70;;
5612;SDS011;2828;53.582;9.956;2022-07-21T03:12:19;36.63;;;13.20;;
5612;SDS011;2828;53.582;9.956;2022-07-21T03:14:45;26.37;;;10.30;;
5612;SDS011;2828;53.582;9.956;2022-07-21T03:17:11;26.50;;;10.13;;
5612;SDS011;2828;53.582;9.956;2022-07-21T03:19:37;22.60;;;10.53;;
5612;SDS011;2828;53.582;9.956;2022-07-21T03:22:03;17.90;;;10.13;;
5612;SDS011;2828;53.582;9.956;2022-07-21T03:24:29;20.97;;;9.23;;
5612;SDS011;2828;53.582;9.956;2022-07-21T03:26:56;14.87;;;9.17;;
5612;SDS011;2828;53.582;9.956;2022-07-21T03:29:22;18.03;;;9.37;;
5612;SDS011;2828;53.582;9.956;2022-07-21T03:31:48;19.70;;;9.67;;
5612;SDS011;2828;53.582;9.956;2022-07-21T03:34:14;25.87;;;10.03;;
5612;SDS011;2828;53.582;9.956;2022-07-21T03:36:40;21.23;;;10.53;;
5612;SDS011;2828;53.582;9.956;2022-07-21T03:39:06;22.40;;;9.20;;
5612;SDS011;2828;53.582;9.956;2022-07-21T03:41:32;32.13;;;8.77;;
5612;SDS011;2828;53.582;9.956;2022-07-21T03:43:58;18.83;;;8.40;;
5612;SDS011;2828;53.582;9.956;2022-07-21T03:46:24;17.90;;;7.90;;
5612;SDS011;2828;53.582;9.956;2022-07-21T03:48:50;15.47;;;7.80;;
5612;SDS011;2828;53.582;9.956;2022-07-21T03:51:16;17.03;;;7.20;;
5612;SDS011;2828;53.582;9.956;2022-07-21T03:53:42;20.20;;;7.40;;
5612;SDS011;2828;53.582;9.956;2022-07-21T03:56:08;21.17;;;8.17;;
5612;SDS011;2828;53.582;9.956;2022-07-21T03:58:34;28.03;;;6.90;;
5612;SDS011;2828;53.582;9.956;2022-07-21T04:01:00;24.00;;;7.53;;
5612;SDS011;2828;53.582;9.956;2022-07-21T04:03:26;21.67;;;7.60;;
5612;SDS011;2828;53.582;9.956;2022-07-21T04:05:52;17.47;;;7.40;;
5612;SDS011;2828;53.582;9.956;2022-07-21T04:08:18;20.53;;;7.27;;
5612;SDS011;2828;53.582;9.956;2022-07-21T04:10:44;19.97;;;8.60;;
5612;SDS011;2828;53.582;9.956;2022-07-21T04:13:11;19.90;;;7.53;;
5612;SDS011;2828;53.582;9.956;2022-07-21T04:15:37;14.17;;;7.00;;
5612;SDS011;2828;53.582;9.956;2022-07-21T04:18:04;25.03;;;7.27;;
5612;SDS011;2828;53.582;9.956;2022-07-21T04:20:30;24.87;;;7.60;;
5612;SDS011;2828;53.582;9.956;2022-07-21T04:22:56;19.40;;;7.97;;
5612;SDS011;2828;53.582;9.956;2022-07-21T04:25:22;27.73;;;6.93;;
5612;SDS011;2828;53.582;9.956;2022-07-21T04:27:49;17.03;;;8.27;;
5612;SDS011;2828;53.582;9.956;2022-07-21T04:30:16;19.43;;;7.30;;
5612;SDS011;2828;53.582;9.956;2022-07-21T04:32:42;21.47;;;6.20;;
5612;SDS011;2828;53.582;9.956;2022-07-21T04:35:09;16.60;;;6.90;;
5612;SDS011;2828;53.582;9.956;2022-07-21T04:37:35;17.50;;;6.30;;
5612;SDS011;2828;53.582;9.956;2022-07-21T04:40:01;12.60;;;5.73;;
5612;SDS011;2828;53.582;9.956;2022-07-21T04:42:27;15.63;;;6.40;;
5612;SDS011;2828;53.582;9.956;2022-07-21T04:44:53;11.57;;;6.20;;
5612;SDS011;2828;53.582;9.956;2022-07-21T04:47:19;16.57;;;6.40;;
5612;SDS011;2828;53.582;9.956;2022-07-21T04:49:45;16.93;;;6.43;;
5612;SDS011;2828;53.582;9.956;2022-07-21T04:52:11;25.70;;;7.23;;
5612;SDS011;2828;53.582;9.956;2022-07-21T04:54:37;11.97;;;6.27;;
5612;SDS011;2828;53.582;9.956;2022-07-21T04:57:04;14.00;;;6.20;;
5612;SDS011;2828;53.582;9.956;2022-07-21T04:59:31;12.83;;;5.83;;
5612;SDS011;2828;53.582;9.956;2022-07-21T05:01:57;14.90;;;6.83;;
5612;SDS011;2828;53.582;9.956;2022-07-21T05:04:23;29.57;;;6.30;;
5612;SDS011;2828;53.582;9.956;2022-07-21T05:06:49;15.03;;;6.77;;
5612;SDS011;2828;53.582;9.956;2022-07-21T05:09:15;11.30;;;5.60;;
5612;SDS011;2828;53.582;9.956;2022-07-21T05:11:41;24.37;;;6.50;;
5612;SDS011;2828;53.582;9.956;2022-07-21T05:14:07;11.57;;;5.70;;
5612;SDS011;2828;53.582;9.956;2022-07-21T05:16:33;9.97;;;6.70;;
5612;SDS011;2828;53.582;9.956;2022-07-21T05:18:59;13.30;;;6.13;;
5612;SDS011;2828;53.582;9.956;2022-07-21T05:21:25;18.10;;;5.87;;
5612;SDS011;2828;53.582;9.956;2022-07-21T05:23:51;11.00;;;6.03;;
5612;SDS011;2828;53.582;9.956;2022-07-21T05:26:17;9.40;;;5.90;;
5612;SDS011;2828;53.582;9.956;2022-07-21T05:28:43;14.70;;;5.67;;
5612;SDS011;2828;53.582;9.956;2022-07-21T05:31:09;27.83;;;5.80;;
5612;SDS011;2828;53.582;9.956;2022-07-21T05:33:35;11.23;;;6.17;;
5612;SDS011;2828;53.582;9.956;2022-07-21T05:36:02;14.77;;;5.70;;
5612;SDS011;2828;53.582;9.956;2022-07-21T05:38:28;11.70;;;5.93;;
5612;SDS011;2828;53.582;9.956;2022-07-21T05:40:54;22.37;;;6.80;;
5612;SDS011;2828;53.582;9.956;2022-07-21T05:43:20;12.50;;;6.17;;
5612;SDS011;2828;53.582;9.956;2022-07-21T05:45:46;10.47;;;5.43;;
5612;SDS011;2828;53.582;9.956;2022-07-21T05:48:12;11.83;;;5.70;;
5612;SDS011;2828;53.582;9.956;2022-07-21T05:50:39;12.97;;;6.27;;
5612;SDS011;2828;53.582;9.956;2022-07-21T05:53:05;15.73;;;6.23;;
5612;SDS011;2828;53.582;9.956;2022-07-21T05:55:31;14.83;;;6.53;;
5612;SDS011;2828;53.582;9.956;2022-07-21T05:57:57;13.17;;;5.70;;
5612;SDS011;2828;53.582;9.956;2022-07-21T06:00:23;33.03;;;7.77;;
5612;SDS011;2828;53.582;9.956;2022-07-21T06:02:49;15.37;;;6.10;;
5612;SDS011;2828;53.582;9.956;2022-07-21T06:05:15;18.00;;;6.50;;
5612;SDS011;2828;53.582;9.956;2022-07-21T06:07:41;17.30;;;7.80;;
5612;SDS011;2828;53.582;9.956;2022-07-21T06:10:08;13.27;;;6.20;;
5612;SDS011;2828;53.582;9.956;2022-07-21T06:12:34;11.43;;;5.97;;
5612;SDS011;2828;53.582;9.956;2022-07-21T06:15:00;17.63;;;7.53;;
5612;SDS011;2828;53.582;9.956;2022-07-21T06:17:26;13.40;;;6.87;;
5612;SDS011;2828;53.582;9.956;2022-07-21T06:19:56;17.00;;;6.87;;
5612;SDS011;2828;53.582;9.956;2022-07-21T06:22:23;20.10;;;7.57;;
5612;SDS011;2828;53.582;9.956;2022-07-21T06:24:49;15.00;;;6.50;;
5612;SDS011;2828;53.582;9.956;2022-07-21T06:27:14;13.47;;;7.20;;
5612;SDS011;2828;53.582;9.956;2022-07-21T06:29:40;14.77;;;6.77;;
5612;SDS011;2828;53.582;9.956;2022-07-21T06:32:06;20.03;;;7.40;;
5612;SDS011;2828;53.582;9.956;2022-07-21T06:34:33;14.20;;;6.97;;
5612;SDS011;2828;53.582;9.956;2022-07-21T06:36:59;15.63;;;6.90;;
5612;SDS011;2828;53.582;9.956;2022-07-21T06:39:25;24.90;;;7.10;;
5612;SDS011;2828;53.582;9.956;2022-07-21T06:41:51;20.13;;;7.43;;
5612;SDS011;2828;53.582;9.956;2022-07-21T06:44:17;16.13;;;7.30;;
5612;SDS011;2828;53.582;9.956;2022-07-21T06:46:42;16.83;;;7.83;;
5612;SDS011;2828;53.582;9.956;2022-07-21T06:49:09;18.63;;;7.83;;
5612;SDS011;2828;53.582;9.956;2022-07-21T06:51:34;19.97;;;7.57;;
5612;SDS011;2828;53.582;9.956;2022-07-21T06:54:00;16.30;;;6.20;;
5612;SDS011;2828;53.582;9.956;2022-07-21T06:56:26;15.10;;;7.30;;
5612;SDS011;2828;53.582;9.956;2022-07-21T06:58:52;23.00;;;7.17;;
5612;SDS011;2828;53.582;9.956;2022-07-21T07:01:18;17.93;;;7.90;;
5612;SDS011;2828;53.582;9.956;2022-07-21T07:03:44;16.50;;;8.33;;
5612;SDS011;2828;53.582;9.956;2022-07-21T07:06:11;25.57;;;8.33;;
5612;SDS011;2828;53.582;9.956;2022-07-21T07:08:37;19.23;;;9.40;;
5612;SDS011;2828;53.582;9.956;2022-07-21T07:11:04;19.93;;;7.70;;
5612;SDS011;2828;53.582;9.956;2022-07-21T07:13:30;16.40;;;8.13;;
5612;SDS011;2828;53.582;9.956;2022-07-21T07:15:56;26.97;;;9.87;;
5612;SDS011;2828;53.582;9.956;2022-07-21T07:18:22;17.00;;;8.57;;
5612;SDS011;2828;53.582;9.956;2022-07-21T07:20:49;33.10;;;9.40;;
5612;SDS011;2828;53.582;9.956;2022-07-21T07:23:16;19.23;;;9.90;;
5612;SDS011;2828;53.582;9.956;2022-07-21T07:25:43;18.90;;;9.50;;
5612;SDS011;2828;53.582;9.956;2022-07-21T07:28:09;16.87;;;7.93;;
5612;SDS011;2828;53.582;9.956;2022-07-21T07:30:35;15.50;;;8.57;;
5612;SDS011;2828;53.582;9.956;2022-07-21T07:33:01;18.00;;;8.40;;
5612;SDS011;2828;53.582;9.956;2022-07-21T07:35:27;19.57;;;9.17;;
5612;SDS011;2828;53.582;9.956;2022-07-21T07:37:53;24.90;;;9.20;;
5612;SDS011;2828;53.582;9.956;2022-07-21T07:40:20;21.83;;;10.00;;
5612;SDS011;2828;53.582;9.956;2022-07-21T07:42:46;17.83;;;9.07;;
5612;SDS011;2828;53.582;9.956;2022-07-21T07:45:12;17.80;;;9.70;;
5612;SDS011;2828;53.582;9.956;2022-07-21T07:47:38;24.93;;;10.57;;
5612;SDS011;2828;53.582;9.956;2022-07-21T07:50:05;21.13;;;11.20;;
5612;SDS011;2828;53.582;9.956;2022-07-21T07:52:33;19.53;;;9.53;;
5612;SDS011;2828;53.582;9.956;2022-07-21T07:54:59;26.10;;;11.27;;
5612;SDS011;2828;53.582;9.956;2022-07-21T07:57:28;24.27;;;11.90;;
5612;SDS011;2828;53.582;9.956;2022-07-21T07:59:54;29.57;;;13.07;;
5612;SDS011;2828;53.582;9.956;2022-07-21T08:02:20;25.80;;;12.27;;
5612;SDS011;2828;53.582;9.956;2022-07-21T08:04:46;30.30;;;12.90;;
5612;SDS011;2828;53.582;9.956;2022-07-21T08:07:12;29.73;;;12.63;;
5612;SDS011;2828;53.582;9.956;2022-07-21T08:09:39;25.30;;;14.07;;
5612;SDS011;2828;53.582;9.956;2022-07-21T08:12:05;33.30;;;13.00;;
5612;SDS011;2828;53.582;9.956;2022-07-21T08:14:31;22.20;;;13.00;;
5612;SDS011;2828;53.582;9.956;2022-07-21T08:16:57;27.57;;;12.37;;
5612;SDS011;2828;53.582;9.956;2022-07-21T08:19:25;25.60;;;13.77;;
5612;SDS011;2828;53.582;9.956;2022-07-21T08:21:51;32.30;;;14.20;;
5612;SDS011;2828;53.582;9.956;2022-07-21T08:24:17;36.47;;;15.50;;
5612;SDS011;2828;53.582;9.956;2022-07-21T08:26:43;23.63;;;13.70;;
5612;SDS011;2828;53.582;9.956;2022-07-21T08:29:10;33.07;;;15.30;;
5612;SDS011;2828;53.582;9.956;2022-07-21T08:31:36;30.37;;;16.40;;
5612;SDS011;2828;53.582;9.956;2022-07-21T08:34:02;25.17;;;13.57;;
5612;SDS011;2828;53.582;9.956;2022-07-21T08:36:28;28.17;;;15.30;;
5612;SDS011;2828;53.582;9.956;2022-07-21T08:38:54;31.33;;;15.80;;
5612;SDS011;2828;53.582;9.956;2022-07-21T08:41:20;35.37;;;15.40;;
5612;SDS011;2828;53.582;9.956;2022-07-21T08:43:46;26.90;;;15.27;;
5612;SDS011;2828;53.582;9.956;2022-07-21T08:46:14;28.27;;;15.57;;
5612;SDS011;2828;53.582;9.956;2022-07-21T08:48:40;32.00;;;16.40;;
5612;SDS011;2828;53.582;9.956;2022-07-21T08:51:07;30.07;;;16.10;;
5612;SDS011;2828;53.582;9.956;2022-07-21T08:53:34;32.83;;;16.23;;
5612;SDS011;2828;53.582;9.956;2022-07-21T08:56:00;27.30;;;15.00;;
5612;SDS011;2828;53.582;9.956;2022-07-21T08:58:26;34.63;;;16.27;;
5612;SDS011;2828;53.582;9.956;2022-07-21T09:00:52;28.90;;;16.30;;
5612;SDS011;2828;53.582;9.956;2022-07-21T09:03:21;34.97;;;15.17;;
5612;SDS011;2828;53.582;9.956;2022-07-21T09:08:46;25.50;;;14.50;;
5612;SDS011;2828;53.582;9.956;2022-07-21T09:16:43;29.33;;;15.40;;
5612;SDS011;2828;53.582;9.956;2022-07-21T09:30:55;31.23;;;15.90;;
5612;SDS011;2828;53.582;9.956;2022-07-21T09:33:23;22.83;;;13.37;;
5612;SDS011;2828;53.582;9.956;2022-07-21T09:35:56;35.43;;;16.43;;
5612;SDS011;2828;53.582;9.956;2022-07-21T09:38:22;25.67;;;14.03;;
5612;SDS011;2828;53.582;9.956;2022-07-21T09:40:48;30.17;;;14.50;;
5612;SDS011;2828;53.582;9.956;2022-07-21T09:46:28;33.13;;;14.00;;
5612;SDS011;2828;53.582;9.956;2022-07-21T09:49:00;24.37;;;15.67;;
5612;SDS011;2828;53.582;9.956;2022-07-21T09:51:37;32.43;;;17.23;;
5612;SDS011;2828;53.582;9.956;2022-07-21T09:56:32;24.93;;;14.17;;
5612;SDS011;2828;53.582;9.956;2022-07-21T09:58:59;23.23;;;13.20;;
5612;SDS011;2828;53.582;9.956;2022-07-21T10:01:26;22.07;;;13.10;;
5612;SDS011;2828;53.582;9.956;2022-07-21T10:03:53;24.67;;;14.30;;
5612;SDS011;2828;53.582;9.956;2022-07-21T10:06:20;21.40;;;12.67;;
5612;SDS011;2828;53.582;9.956;2022-07-21T10:08:48;24.73;;;12.60;;
5612;SDS011;2828;53.582;9.956;2022-07-21T10:11:14;25.13;;;13.37;;
5612;SDS011;2828;53.582;9.956;2022-07-21T10:13:41;28.83;;;13.83;;
5612;SDS011;2828;53.582;9.956;2022-07-21T10:16:08;17.70;;;11.67;;
5612;SDS011;2828;53.582;9.956;2022-07-21T10:18:36;23.33;;;12.03;;
5612;SDS011;2828;53.582;9.956;2022-07-21T10:23:48;20.03;;;11.40;;
5612;SDS011;2828;53.582;9.956;2022-07-21T10:26:15;17.50;;;11.37;;
5612;SDS011;2828;53.582;9.956;2022-07-21T10:28:42;17.90;;;10.87;;
5612;SDS011;2828;53.582;9.956;2022-07-21T10:31:12;17.60;;;11.33;;
5612;SDS011;2828;53.582;9.956;2022-07-21T10:36:11;18.17;;;10.60;;
5612;SDS011;2828;53.582;9.956;2022-07-21T10:57:43;16.20;;;10.47;;
5612;SDS011;2828;53.582;9.956;2022-07-21T11:00:23;16.23;;;9.50;;
5612;SDS011;2828;53.582;9.956;2022-07-21T11:02:56;15.83;;;8.57;;
5612;SDS011;2828;53.582;9.956;2022-07-21T11:05:23;10.30;;;6.50;;
5612;SDS011;2828;53.582;9.956;2022-07-21T11:10:35;10.57;;;6.13;;
5612;SDS011;2828;53.582;9.956;2022-07-21T11:13:01;12.97;;;6.40;;
5612;SDS011;2828;53.582;9.956;2022-07-21T11:15:46;10.70;;;7.83;;
5612;SDS011;2828;53.582;9.956;2022-07-21T11:18:17;7.53;;;6.10;;
5612;SDS011;2828;53.582;9.956;2022-07-21T11:20:43;9.73;;;6.10;;
5612;SDS011;2828;53.582;9.956;2022-07-21T11:23:09;9.47;;;6.30;;
5612;SDS011;2828;53.582;9.956;2022-07-21T11:25:35;8.07;;;6.70;;
5612;SDS011;2828;53.582;9.956;2022-07-21T11:28:01;6.50;;;5.90;;
5612;SDS011;2828;53.582;9.956;2022-07-21T11:30:27;6.50;;;5.90;;
5612;SDS011;2828;53.582;9.956;2022-07-21T11:32:53;14.43;;;5.70;;
5612;SDS011;2828;53.582;9.956;2022-07-21T11:35:19;7.13;;;5.63;;
5612;SDS011;2828;53.582;9.956;2022-07-21T11:37:45;6.40;;;4.83;;
5612;SDS011;2828;53.582;9.956;2022-07-21T11:40:16;6.97;;;5.60;;
5612;SDS011;2828;53.582;9.956;2022-07-21T11:42:43;5.03;;;4.43;;
5612;SDS011;2828;53.582;9.956;2022-07-21T11:45:10;5.80;;;4.50;;
5612;SDS011;2828;53.582;9.956;2022-07-21T11:47:36;4.30;;;3.90;;
5612;SDS011;2828;53.582;9.956;2022-07-21T11:50:04;5.33;;;4.83;;
5612;SDS011;2828;53.582;9.956;2022-07-21T11:52:32;5.63;;;4.50;;
5612;SDS011;2828;53.582;9.956;2022-07-21T11:55:00;5.33;;;4.80;;
5612;SDS011;2828;53.582;9.956;2022-07-21T11:57:26;7.30;;;4.37;;
5612;SDS011;2828;53.582;9.956;2022-07-21T11:59:53;7.60;;;5.33;;
5612;SDS011;2828;53.582;9.956;2022-07-21T12:02:20;5.30;;;4.50;;
5612;SDS011;2828;53.582;9.956;2022-07-21T12:04:47;5.90;;;4.90;;
5612;SDS011;2828;53.582;9.956;2022-07-21T12:07:21;4.80;;;4.40;;
5612;SDS011;2828;53.582;9.956;2022-07-21T12:09:52;6.03;;;4.50;;
5612;SDS011;2828;53.582;9.956;2022-07-21T12:12:34;4.30;;;3.90;;
5612;SDS011;2828;53.582;9.956;2022-07-21T12:20:09;5.87;;;4.30;;
5612;SDS011;2828;53.582;9.956;2022-07-21T12:22:40;6.70;;;4.93;;
5612;SDS011;2828;53.582;9.956;2022-07-21T12:25:09;5.43;;;4.60;;
5612;SDS011;2828;53.582;9.956;2022-07-21T12:27:36;7.67;;;4.40;;
5612;SDS011;2828;53.582;9.956;2022-07-21T12:30:04;6.77;;;5.63;;
5612;SDS011;2828;53.582;9.956;2022-07-21T12:32:37;5.70;;;4.73;;
5612;SDS011;2828;53.582;9.956;2022-07-21T12:35:03;8.07;;;4.80;;
5612;SDS011;2828;53.582;9.956;2022-07-21T12:40:14;5.10;;;4.63;;
5612;SDS011;2828;53.582;9.956;2022-07-21T12:42:40;6.20;;;4.88;;
5612;SDS011;2828;53.582;9.956;2022-07-21T12:45:16;6.20;;;4.78;;
5612;SDS011;2828;53.582;9.956;2022-07-21T12:47:42;7.10;;;4.40;;
5612;SDS011;2828;53.582;9.956;2022-07-21T12:50:13;4.85;;;4.45;;
5612;SDS011;2828;53.582;9.956;2022-07-21T12:52:39;6.70;;;4.80;;
5612;SDS011;2828;53.582;9.956;2022-07-21T12:55:05;8.10;;;4.90;;
5612;SDS011;2828;53.582;9.956;2022-07-21T12:57:32;11.13;;;4.97;;
5612;SDS011;2828;53.582;9.956;2022-07-21T12:59:59;8.45;;;5.05;;
5612;SDS011;2828;53.582;9.956;2022-07-21T13:02:26;5.88;;;4.03;;
5612;SDS011;2828;53.582;9.956;2022-07-21T13:04:54;7.43;;;3.72;;
5612;SDS011;2828;53.582;9.956;2022-07-21T13:07:20;3.08;;;2.88;;
5612;SDS011;2828;53.582;9.956;2022-07-21T13:09:46;4.15;;;2.85;;
5612;SDS011;2828;53.582;9.956;2022-07-21T13:12:12;3.88;;;3.13;;
5612;SDS011;2828;53.582;9.956;2022-07-21T13:14:38;3.88;;;3.58;;
5612;SDS011;2828;53.582;9.956;2022-07-21T13:17:04;3.95;;;3.00;;
5612;SDS011;2828;53.582;9.956;2022-07-21T13:19:30;4.07;;;3.67;;
5612;SDS011;2828;53.582;9.956;2022-07-21T13:21:56;8.80;;;4.43;;
5612;SDS011;2828;53.582;9.956;2022-07-21T13:24:22;6.05;;;4.63;;
5612;SDS011;2828;53.582;9.956;2022-07-21T13:26:48;7.78;;;4.32;;
5612;SDS011;2828;53.582;9.956;2022-07-21T13:29:14;4.97;;;4.47;;
5612;SDS011;2828;53.582;9.956;2022-07-21T13:31:40;4.95;;;4.55;;
5612;SDS011;2828;53.582;9.956;2022-07-21T13:34:06;4.85;;;4.25;;
5612;SDS011;2828;53.582;9.956;2022-07-21T13:36:34;5.80;;;4.20;;
5612;SDS011;2828;53.582;9.956;2022-07-21T13:39:00;6.28;;;4.47;;
5612;SDS011;2828;53.582;9.956;2022-07-21T13:41:28;7.20;;;4.55;;
5612;SDS011;2828;53.582;9.956;2022-07-21T13:43:55;4.40;;;3.97;;
5612;SDS011;2828;53.582;9.956;2022-07-21T13:46:21;4.70;;;3.70;;
5612;SDS011;2828;53.582;9.956;2022-07-21T13:48:47;3.53;;;3.25;;
5612;SDS011;2828;53.582;9.956;2022-07-21T13:51:13;5.13;;;3.53;;
5612;SDS011;2828;53.582;9.956;2022-07-21T13:53:41;7.85;;;3.63;;
5612;SDS011;2828;53.582;9.956;2022-07-21T13:56:07;5.50;;;3.20;;
5612;SDS011;2828;53.582;9.956;2022-07-21T13:58:33;3.88;;;3.47;;
5612;SDS011;2828;53.582;9.956;2022-07-21T14:00:59;5.72;;;3.42;;
5612;SDS011;2828;53.582;9.956;2022-07-21T14:03:25;4.45;;;4.05;;
5612;SDS011;2828;53.582;9.956;2022-07-21T14:05:51;3.45;;;3.15;;
5612;SDS011;2828;53.582;9.956;2022-07-21T14:08:17;3.40;;;3.13;;
5612;SDS011;2828;53.582;9.956;2022-07-21T14:10:43;3.67;;;3.28;;
5612;SDS011;2828;53.582;9.956;2022-07-21T14:13:09;3.20;;;2.58;;
5612;SDS011;2828;53.582;9.956;2022-07-21T14:15:35;3.90;;;3.45;;
5612;SDS011;2828;53.582;9.956;2022-07-21T14:18:01;4.22;;;3.13;;
5612;SDS011;2828;53.582;9.956;2022-07-21T14:20:27;3.57;;;3.27;;
5612;SDS011;2828;53.582;9.956;2022-07-21T14:22:54;3.70;;;3.33;;
5612;SDS011;2828;53.582;9.956;2022-07-21T14:25:20;2.83;;;2.63;;
5612;SDS011;2828;53.582;9.956;2022-07-21T14:27:47;3.05;;;2.85;;
5612;SDS011;2828;53.582;9.956;2022-07-21T14:30:13;2.90;;;2.80;;
5612;SDS011;2828;53.582;9.956;2022-07-21T14:32:40;2.85;;;2.67;;
5612;SDS011;2828;53.582;9.956;2022-07-21T14:35:06;3.33;;;3.03;;
5612;SDS011;2828;53.582;9.956;2022-07-21T14:37:32;2.93;;;2.70;;
5612;SDS011;2828;53.582;9.956;2022-07-21T14:39:58;3.35;;;2.97;;
5612;SDS011;2828;53.582;9.956;2022-07-21T14:42:24;5.65;;;3.28;;
5612;SDS011;2828;53.582;9.956;2022-07-21T14:44:50;3.05;;;2.85;;
5612;SDS011;2828;53.582;9.956;2022-07-21T14:47:17;3.42;;;3.10;;
5612;SDS011;2828;53.582;9.956;2022-07-21T14:49:43;4.38;;;2.80;;
5612;SDS011;2828;53.582;9.956;2022-07-21T14:52:09;4.63;;;3.20;;
5612;SDS011;2828;53.582;9.956;2022-07-21T14:54:35;2.72;;;2.53;;
5612;SDS011;2828;53.582;9.956;2022-07-21T14:57:02;4.17;;;3.60;;
5612;SDS011;2828;53.582;9.956;2022-07-21T14:59:29;7.20;;;4.00;;
5612;SDS011;2828;53.582;9.956;2022-07-21T15:01:55;4.30;;;3.60;;
5612;SDS011;2828;53.582;9.956;2022-07-21T15:04:21;4.28;;;3.88;;
5612;SDS011;2828;53.582;9.956;2022-07-21T15:06:48;3.83;;;3.50;;
5612;SDS011;2828;53.582;9.956;2022-07-21T15:09:14;4.63;;;3.77;;
5612;SDS011;2828;53.582;9.956;2022-07-21T15:11:40;7.65;;;3.58;;
5612;SDS011;2828;53.582;9.956;2022-07-21T15:14:06;6.73;;;4.00;;
5612;SDS011;2828;53.582;9.956;2022-07-21T15:16:32;4.07;;;3.63;;
5612;SDS011;2828;53.582;9.956;2022-07-21T15:18:58;4.53;;;4.13;;
5612;SDS011;2828;53.582;9.956;2022-07-21T15:21:24;4.77;;;4.33;;
5612;SDS011;2828;53.582;9.956;2022-07-21T15:23:50;5.57;;;4.37;;
5612;SDS011;2828;53.582;9.956;2022-07-21T15:26:17;4.60;;;4.20;;
5612;SDS011;2828;53.582;9.956;2022-07-21T15:28:43;5.27;;;4.77;;
5612;SDS011;2828;53.582;9.956;2022-07-21T15:31:09;8.13;;;5.40;;
5612;SDS011;2828;53.582;9.956;2022-07-21T15:33:35;5.70;;;5.20;;
5612;SDS011;2828;53.582;9.956;2022-07-21T15:36:01;6.40;;;5.27;;
5612;SDS011;2828;53.582;9.956;2022-07-21T15:38:27;8.00;;;6.50;;
5612;SDS011;2828;53.582;9.956;2022-07-21T15:40:53;5.87;;;5.10;;
5612;SDS011;2828;53.582;9.956;2022-07-21T15:43:19;10.63;;;6.60;;
5612;SDS011;2828;53.582;9.956;2022-07-21T15:45:46;8.30;;;6.47;;
5612;SDS011;2828;53.582;9.956;2022-07-21T15:48:12;13.40;;;6.83;;
5612;SDS011;2828;53.582;9.956;2022-07-21T15:50:38;7.57;;;6.40;;
5612;SDS011;2828;53.582;9.956;2022-07-21T15:53:04;11.37;;;8.00;;
5612;SDS011;2828;53.582;9.956;2022-07-21T15:55:31;15.40;;;8.00;;
5612;SDS011;2828;53.582;9.956;2022-07-21T15:57:57;11.07;;;8.17;;
5612;SDS011;2828;53.582;9.956;2022-07-21T16:00:23;11.13;;;8.47;;